sensor_id;sensor_type;location;lat;lon;timestamp;temperature;humidity
36716;DHT22;22699;51.034;3.730;2023-03-23T00:01:57;13.40;99.90
36716;DHT22;22699;51.034;3.730;2023-03-23T00:04:23;13.40;99.90
36716;DHT22;22699;51.034;3.730;2023-03-23T00:06:52;13.50;99.90
36716;DHT22;22699;51.034;3.730;2023-03-23T00:09:17;13.50;99.90
36716;DHT22;22699;51.034;3.730;2023-03-23T00:11:49;13.40;99.90
36716;DHT22;22699;51.034;3.730;2023-03-23T00:14:16;13.40;99.90
36716;DHT22;22699;51.034;3.730;2023-03-23T00:16:41;13.40;99.90
36716;DHT22;22699;51.034;3.730;2023-03-23T00:19:10;13.40;99.90
36716;DHT22;22699;51.034;3.730;2023-03-23T00:21:39;13.30;99.90
36716;DHT22;22699;51.034;3.730;2023-03-23T00:24:07;13.20;99.90
36716;DHT22;22699;51.034;3.730;2023-03-23T00:26:35;13.20;99.90
36716;DHT22;22699;51.034;3.730;2023-03-23T00:29:03;13.20;99.90
36716;DHT22;22699;51.034;3.730;2023-03-23T00:31:29;13.20;99.90
36716;DHT22;22699;51.034;3.730;2023-03-23T00:34:02;13.30;99.90
36716;DHT22;22699;51.034;3.730;2023-03-23T00:36:30;13.30;99.90
36716;DHT22;22699;51.034;3.730;2023-03-23T00:38:57;13.20;99.90
36716;DHT22;22699;51.034;3.730;2023-03-23T00:41:27;13.20;99.90
36716;DHT22;22699;51.034;3.730;2023-03-23T00:43:56;13.20;99.90
36716;DHT22;22699;51.034;3.730;2023-03-23T00:46:23;13.20;99.90
36716;DHT22;22699;51.034;3.730;2023-03-23T00:48:50;13.20;99.90
36716;DHT22;22699;51.034;3.730;2023-03-23T00:51:19;13.10;99.90
36716;DHT22;22699;51.034;3.730;2023-03-23T00:53:46;13.10;99.90
36716;DHT22;22699;51.034;3.730;2023-03-23T00:56:12;13.10;99.90
36716;DHT22;22699;51.034;3.730;2023-03-23T00:58:38;13.10;99.90
36716;DHT22;22699;51.034;3.730;2023-03-23T01:01:04;13.10;99.90
36716;DHT22;22699;51.034;3.730;2023-03-23T01:03:30;13.20;99.90
36716;DHT22;22699;51.034;3.730;2023-03-23T01:05:56;13.10;99.90
36716;DHT22;22699;51.034;3.730;2023-03-23T01:08:23;13.10;99.90
36716;DHT22;22699;51.034;3.730;2023-03-23T01:10:50;13.10;99.90
36716;DHT22;22699;51.034;3.730;2023-03-23T01:13:16;12.90;99.90
36716;DHT22;22699;51.034;3.730;2023-03-23T01:15:42;13.20;99.90
36716;DHT22;22699;51.034;3.730;2023-03-23T01:18:09;13.10;99.90
36716;DHT22;22699;51.034;3.730;2023-03-23T01:20:36;13.10;99.90
36716;DHT22;22699;51.034;3.730;2023-03-23T01:23:02;13.10;99.90
36716;DHT22;22699;51.034;3.730;2023-03-23T01:25:30;13.00;99.90
36716;DHT22;22699;51.034;3.730;2023-03-23T01:27:57;13.10;99.90
36716;DHT22;22699;51.034;3.730;2023-03-23T01:30:24;13.20;99.90
36716;DHT22;22699;51.034;3.730;2023-03-23T01:32:51;13.10;99.90
36716;DHT22;22699;51.034;3.730;2023-03-23T01:35:18;13.20;99.90
36716;DHT22;22699;51.034;3.730;2023-03-23T01:37:45;13.10;99.90
36716;DHT22;22699;51.034;3.730;2023-03-23T01:40:11;13.10;99.90
36716;DHT22;22699;51.034;3.730;2023-03-23T01:42:38;13.20;99.90
36716;DHT22;22699;51.034;3.730;2023-03-23T01:45:31;13.10;99.90
36716;DHT22;22699;51.034;3.730;2023-03-23T01:48:06;13.20;99.90
36716;DHT22;22699;51.034;3.730;2023-03-23T01:51:15;13.20;99.90
36716;DHT22;22699;51.034;3.730;2023-03-23T01:53:44;13.10;99.90
36716;DHT22;22699;51.034;3.730;2023-03-23T01:56:12;13.10;99.90
36716;DHT22;22699;51.034;3.730;2023-03-23T01:58:40;13.10;99.90
36716;DHT22;22699;51.034;3.730;2023-03-23T02:01:11;13.10;99.90
36716;DHT22;22699;51.034;3.730;2023-03-23T02:03:37;13.20;99.90
36716;DHT22;22699;51.034;3.730;2023-03-23T02:06:05;13.20;99.90
36716;DHT22;22699;51.034;3.730;2023-03-23T02:08:32;13.10;99.90
36716;DHT22;22699;51.034;3.730;2023-03-23T02:10:58;13.10;99.90
36716;DHT22;22699;51.034;3.730;2023-03-23T02:13:24;13.00;99.90
36716;DHT22;22699;51.034;3.730;2023-03-23T02:16:14;13.10;99.90
36716;DHT22;22699;51.034;3.730;2023-03-23T02:19:13;13.10;99.90
36716;DHT22;22699;51.034;3.730;2023-03-23T02:24:51;13.10;99.90
36716;DHT22;22699;51.034;3.730;2023-03-23T02:30:32;13.00;99.90
36716;DHT22;22699;51.034;3.730;2023-03-23T02:35:54;13.10;99.90
36716;DHT22;22699;51.034;3.730;2023-03-23T02:38:29;13.10;99.90
36716;DHT22;22699;51.034;3.730;2023-03-23T02:40:56;13.10;99.90
36716;DHT22;22699;51.034;3.730;2023-03-23T02:43:27;13.10;99.90
36716;DHT22;22699;51.034;3.730;2023-03-23T02:45:54;13.10;99.90
36716;DHT22;22699;51.034;3.730;2023-03-23T02:48:24;13.10;99.90
36716;DHT22;22699;51.034;3.730;2023-03-23T02:50:53;13.10;99.90
36716;DHT22;22699;51.034;3.730;2023-03-23T02:53:24;13.20;99.90
36716;DHT22;22699;51.034;3.730;2023-03-23T02:55:51;13.20;99.90
36716;DHT22;22699;51.034;3.730;2023-03-23T02:58:18;13.20;99.90
36716;DHT22;22699;51.034;3.730;2023-03-23T03:00:44;13.20;99.90
36716;DHT22;22699;51.034;3.730;2023-03-23T03:03:15;13.10;99.90
36716;DHT22;22699;51.034;3.730;2023-03-23T03:06:06;13.10;99.90
36716;DHT22;22699;51.034;3.730;2023-03-23T03:09:12;13.10;99.90
36716;DHT22;22699;51.034;3.730;2023-03-23T03:11:38;13.10;99.90
36716;DHT22;22699;51.034;3.730;2023-03-23T03:14:28;13.10;99.90
36716;DHT22;22699;51.034;3.730;2023-03-23T03:17:24;13.20;99.90
36716;DHT22;22699;51.034;3.730;2023-03-23T03:19:56;13.10;99.90
36716;DHT22;22699;51.034;3.730;2023-03-23T03:22:23;13.10;99.90
36716;DHT22;22699;51.034;3.730;2023-03-23T03:24:56;13.10;99.90
36716;DHT22;22699;51.034;3.730;2023-03-23T03:27:31;13.00;99.90
36716;DHT22;22699;51.034;3.730;2023-03-23T03:29:59;13.00;99.90
36716;DHT22;22699;51.034;3.730;2023-03-23T03:32:36;13.00;99.90
36716;DHT22;22699;51.034;3.730;2023-03-23T03:35:05;13.00;99.90
36716;DHT22;22699;51.034;3.730;2023-03-23T03:37:36;13.10;99.90
36716;DHT22;22699;51.034;3.730;2023-03-23T03:40:05;13.00;99.90
36716;DHT22;22699;51.034;3.730;2023-03-23T03:42:41;13.10;99.90
36716;DHT22;22699;51.034;3.730;2023-03-23T03:45:08;13.00;99.90
36716;DHT22;22699;51.034;3.730;2023-03-23T03:47:34;13.10;99.90
36716;DHT22;22699;51.034;3.730;2023-03-23T03:50:00;13.00;99.90
36716;DHT22;22699;51.034;3.730;2023-03-23T03:52:25;13.10;99.90
36716;DHT22;22699;51.034;3.730;2023-03-23T03:54:54;13.00;99.90
36716;DHT22;22699;51.034;3.730;2023-03-23T03:57:21;13.00;99.90
36716;DHT22;22699;51.034;3.730;2023-03-23T03:59:49;13.00;99.90
36716;DHT22;22699;51.034;3.730;2023-03-23T04:02:16;12.90;99.90
36716;DHT22;22699;51.034;3.730;2023-03-23T04:04:46;13.00;99.90
36716;DHT22;22699;51.034;3.730;2023-03-23T04:07:39;13.10;99.90
36716;DHT22;22699;51.034;3.730;2023-03-23T04:10:14;13.00;99.90
36716;DHT22;22699;51.034;3.730;2023-03-23T04:12:39;13.00;99.90
36716;DHT22;22699;51.034;3.730;2023-03-23T04:15:05;13.00;99.90
36716;DHT22;22699;51.034;3.730;2023-03-23T04:17:31;13.10;99.90
36716;DHT22;22699;51.034;3.730;2023-03-23T04:19:57;13.00;99.90
36716;DHT22;22699;51.034;3.730;2023-03-23T04:22:27;12.90;99.90
36716;DHT22;22699;51.034;3.730;2023-03-23T04:25:07;13.00;99.90
36716;DHT22;22699;51.034;3.730;2023-03-23T04:27:36;13.10;99.90
36716;DHT22;22699;51.034;3.730;2023-03-23T04:30:15;13.00;99.90
36716;DHT22;22699;51.034;3.730;2023-03-23T04:32:41;12.90;99.90
36716;DHT22;22699;51.034;3.730;2023-03-23T04:35:12;12.90;99.90
36716;DHT22;22699;51.034;3.730;2023-03-23T04:37:58;12.90;99.90
36716;DHT22;22699;51.034;3.730;2023-03-23T04:40:24;12.90;99.90
36716;DHT22;22699;51.034;3.730;2023-03-23T04:42:50;12.90;99.90
36716;DHT22;22699;51.034;3.730;2023-03-23T04:45:20;12.90;99.90
36716;DHT22;22699;51.034;3.730;2023-03-23T04:47:48;12.80;99.90
36716;DHT22;22699;51.034;3.730;2023-03-23T04:50:21;12.90;99.90
36716;DHT22;22699;51.034;3.730;2023-03-23T04:52:50;12.90;99.90
36716;DHT22;22699;51.034;3.730;2023-03-23T04:55:18;12.90;99.90
36716;DHT22;22699;51.034;3.730;2023-03-23T04:57:45;13.00;99.90
36716;DHT22;22699;51.034;3.730;2023-03-23T05:00:11;12.90;99.90
36716;DHT22;22699;51.034;3.730;2023-03-23T05:02:40;12.90;99.90
36716;DHT22;22699;51.034;3.730;2023-03-23T05:05:07;12.90;99.90
36716;DHT22;22699;51.034;3.730;2023-03-23T05:07:33;12.70;99.90
36716;DHT22;22699;51.034;3.730;2023-03-23T05:09:58;12.60;99.90
36716;DHT22;22699;51.034;3.730;2023-03-23T05:12:25;12.70;99.90
36716;DHT22;22699;51.034;3.730;2023-03-23T05:14:50;12.50;99.90
36716;DHT22;22699;51.034;3.730;2023-03-23T05:17:16;12.50;99.90
36716;DHT22;22699;51.034;3.730;2023-03-23T05:19:44;12.40;99.90
36716;DHT22;22699;51.034;3.730;2023-03-23T05:22:14;12.40;99.90
36716;DHT22;22699;51.034;3.730;2023-03-23T05:24:40;12.40;99.90
36716;DHT22;22699;51.034;3.730;2023-03-23T05:27:05;12.50;99.90
36716;DHT22;22699;51.034;3.730;2023-03-23T05:29:34;12.40;99.90
36716;DHT22;22699;51.034;3.730;2023-03-23T05:32:03;12.30;99.90
36716;DHT22;22699;51.034;3.730;2023-03-23T05:34:30;12.10;99.90
36716;DHT22;22699;51.034;3.730;2023-03-23T05:37:03;12.10;99.90
36716;DHT22;22699;51.034;3.730;2023-03-23T05:39:30;12.10;99.90
36716;DHT22;22699;51.034;3.730;2023-03-23T05:41:57;12.30;99.90
36716;DHT22;22699;51.034;3.730;2023-03-23T05:44:23;12.30;99.90
36716;DHT22;22699;51.034;3.730;2023-03-23T05:46:48;12.00;99.90
36716;DHT22;22699;51.034;3.730;2023-03-23T05:49:15;11.90;99.90
36716;DHT22;22699;51.034;3.730;2023-03-23T05:51:42;11.90;99.90
36716;DHT22;22699;51.034;3.730;2023-03-23T05:54:08;11.70;99.90
36716;DHT22;22699;51.034;3.730;2023-03-23T05:56:33;11.50;99.90
36716;DHT22;22699;51.034;3.730;2023-03-23T05:58:59;11.50;99.90
36716;DHT22;22699;51.034;3.730;2023-03-23T06:01:26;11.40;99.90
36716;DHT22;22699;51.034;3.730;2023-03-23T06:03:52;11.30;99.90
36716;DHT22;22699;51.034;3.730;2023-03-23T06:06:21;11.30;99.90
36716;DHT22;22699;51.034;3.730;2023-03-23T06:08:46;11.20;99.90
36716;DHT22;22699;51.034;3.730;2023-03-23T06:11:13;11.20;99.90
36716;DHT22;22699;51.034;3.730;2023-03-23T06:13:39;11.20;99.90
36716;DHT22;22699;51.034;3.730;2023-03-23T06:16:05;11.10;99.90
36716;DHT22;22699;51.034;3.730;2023-03-23T06:18:31;11.10;99.90
36716;DHT22;22699;51.034;3.730;2023-03-23T06:20:59;11.00;99.90
36716;DHT22;22699;51.034;3.730;2023-03-23T06:23:26;11.10;99.90
36716;DHT22;22699;51.034;3.730;2023-03-23T06:25:58;11.10;99.90
36716;DHT22;22699;51.034;3.730;2023-03-23T06:28:25;11.00;99.90
36716;DHT22;22699;51.034;3.730;2023-03-23T06:30:50;10.90;99.90
36716;DHT22;22699;51.034;3.730;2023-03-23T06:33:16;10.90;99.90
36716;DHT22;22699;51.034;3.730;2023-03-23T06:35:42;10.90;99.90
36716;DHT22;22699;51.034;3.730;2023-03-23T06:38:08;11.00;99.90
36716;DHT22;22699;51.034;3.730;2023-03-23T06:40:35;11.00;99.90
36716;DHT22;22699;51.034;3.730;2023-03-23T06:43:04;11.00;99.90
36716;DHT22;22699;51.034;3.730;2023-03-23T06:45:31;11.00;99.90
36716;DHT22;22699;51.034;3.730;2023-03-23T06:47:58;10.90;99.90
36716;DHT22;22699;51.034;3.730;2023-03-23T06:50:34;11.40;99.90
36716;DHT22;22699;51.034;3.730;2023-03-23T06:53:16;10.90;99.90
36716;DHT22;22699;51.034;3.730;2023-03-23T06:55:51;10.90;99.90
36716;DHT22;22699;51.034;3.730;2023-03-23T06:58:26;11.00;99.90
36716;DHT22;22699;51.034;3.730;2023-03-23T07:00:56;11.00;99.90
36716;DHT22;22699;51.034;3.730;2023-03-23T07:03:23;11.00;99.90
36716;DHT22;22699;51.034;3.730;2023-03-23T07:05:48;11.20;99.90
36716;DHT22;22699;51.034;3.730;2023-03-23T07:08:15;11.20;99.90
36716;DHT22;22699;51.034;3.730;2023-03-23T07:10:41;11.30;99.90
36716;DHT22;22699;51.034;3.730;2023-03-23T07:13:06;11.40;99.90
36716;DHT22;22699;51.034;3.730;2023-03-23T07:15:32;11.40;99.90
36716;DHT22;22699;51.034;3.730;2023-03-23T07:17:58;11.40;99.90
36716;DHT22;22699;51.034;3.730;2023-03-23T07:20:23;11.40;99.90
36716;DHT22;22699;51.034;3.730;2023-03-23T07:22:49;11.40;99.90
36716;DHT22;22699;51.034;3.730;2023-03-23T07:25:16;11.40;99.90
36716;DHT22;22699;51.034;3.730;2023-03-23T07:27:41;11.40;99.90
36716;DHT22;22699;51.034;3.730;2023-03-23T07:30:10;11.50;99.90
36716;DHT22;22699;51.034;3.730;2023-03-23T07:32:36;11.40;99.90
36716;DHT22;22699;51.034;3.730;2023-03-23T07:35:02;11.30;99.90
36716;DHT22;22699;51.034;3.730;2023-03-23T07:37:29;11.50;99.90
36716;DHT22;22699;51.034;3.730;2023-03-23T07:39:54;11.70;99.90
36716;DHT22;22699;51.034;3.730;2023-03-23T07:42:21;11.70;99.90
36716;DHT22;22699;51.034;3.730;2023-03-23T07:44:46;11.80;99.90
36716;DHT22;22699;51.034;3.730;2023-03-23T07:47:12;11.80;99.90
36716;DHT22;22699;51.034;3.730;2023-03-23T07:49:38;11.80;99.90
36716;DHT22;22699;51.034;3.730;2023-03-23T07:52:04;11.80;99.90
36716;DHT22;22699;51.034;3.730;2023-03-23T07:54:30;11.80;99.90
36716;DHT22;22699;51.034;3.730;2023-03-23T07:56:57;12.00;99.90
36716;DHT22;22699;51.034;3.730;2023-03-23T07:59:23;11.90;99.90
36716;DHT22;22699;51.034;3.730;2023-03-23T08:01:51;12.00;99.90
36716;DHT22;22699;51.034;3.730;2023-03-23T08:04:17;12.30;99.90
36716;DHT22;22699;51.034;3.730;2023-03-23T08:06:43;12.70;99.90
36716;DHT22;22699;51.034;3.730;2023-03-23T08:09:16;12.90;99.90
36716;DHT22;22699;51.034;3.730;2023-03-23T08:11:41;13.00;99.90
36716;DHT22;22699;51.034;3.730;2023-03-23T08:14:07;13.70;99.90
36716;DHT22;22699;51.034;3.730;2023-03-23T08:16:33;15.10;99.90
36716;DHT22;22699;51.034;3.730;2023-03-23T08:18:59;17.50;99.90
36716;DHT22;22699;51.034;3.730;2023-03-23T08:21:27;19.40;99.90
36716;DHT22;22699;51.034;3.730;2023-03-23T08:23:53;20.60;98.70
36716;DHT22;22699;51.034;3.730;2023-03-23T08:26:19;21.50;96.90
36716;DHT22;22699;51.034;3.730;2023-03-23T08:28:45;22.60;94.20
36716;DHT22;22699;51.034;3.730;2023-03-23T08:31:12;23.50;92.00
36716;DHT22;22699;51.034;3.730;2023-03-23T08:33:40;24.20;88.90
36716;DHT22;22699;51.034;3.730;2023-03-23T08:36:07;24.30;86.20
36716;DHT22;22699;51.034;3.730;2023-03-23T08:38:34;24.90;84.60
36716;DHT22;22699;51.034;3.730;2023-03-23T08:41:03;25.80;81.70
36716;DHT22;22699;51.034;3.730;2023-03-23T08:43:31;25.60;78.20
36716;DHT22;22699;51.034;3.730;2023-03-23T08:45:57;24.10;80.70
36716;DHT22;22699;51.034;3.730;2023-03-23T08:48:23;23.90;82.60
36716;DHT22;22699;51.034;3.730;2023-03-23T08:50:49;23.50;81.40
36716;DHT22;22699;51.034;3.730;2023-03-23T08:53:16;22.90;84.20
36716;DHT22;22699;51.034;3.730;2023-03-23T08:55:41;22.00;86.10
36716;DHT22;22699;51.034;3.730;2023-03-23T08:58:08;21.30;87.60
36716;DHT22;22699;51.034;3.730;2023-03-23T09:00:35;21.30;89.00
36716;DHT22;22699;51.034;3.730;2023-03-23T09:03:01;21.70;87.70
36716;DHT22;22699;51.034;3.730;2023-03-23T09:05:28;21.80;88.70
36716;DHT22;22699;51.034;3.730;2023-03-23T09:07:57;21.60;87.80
36716;DHT22;22699;51.034;3.730;2023-03-23T09:10:25;20.90;89.50
36716;DHT22;22699;51.034;3.730;2023-03-23T09:12:52;20.80;90.40
36716;DHT22;22699;51.034;3.730;2023-03-23T09:15:18;20.80;90.00
36716;DHT22;22699;51.034;3.730;2023-03-23T09:17:46;21.10;89.80
36716;DHT22;22699;51.034;3.730;2023-03-23T09:20:17;21.10;89.80
36716;DHT22;22699;51.034;3.730;2023-03-23T09:22:48;21.40;89.60
36716;DHT22;22699;51.034;3.730;2023-03-23T09:25:16;21.30;89.10
36716;DHT22;22699;51.034;3.730;2023-03-23T09:27:45;21.10;89.90
36716;DHT22;22699;51.034;3.730;2023-03-23T09:30:13;21.10;90.10
36716;DHT22;22699;51.034;3.730;2023-03-23T09:32:44;21.40;90.30
36716;DHT22;22699;51.034;3.730;2023-03-23T09:35:11;21.60;89.90
36716;DHT22;22699;51.034;3.730;2023-03-23T09:37:39;20.90;90.30
36716;DHT22;22699;51.034;3.730;2023-03-23T09:40:10;19.70;91.70
36716;DHT22;22699;51.034;3.730;2023-03-23T09:51:21;18.40;94.20
36716;DHT22;22699;51.034;3.730;2023-03-23T09:53:54;17.60;95.90
36716;DHT22;22699;51.034;3.730;2023-03-23T09:56:23;16.60;97.30
36716;DHT22;22699;51.034;3.730;2023-03-23T09:59:00;16.00;98.80
36716;DHT22;22699;51.034;3.730;2023-03-23T10:01:38;15.80;99.90
36716;DHT22;22699;51.034;3.730;2023-03-23T10:07:24;15.50;99.90
36716;DHT22;22699;51.034;3.730;2023-03-23T10:10:00;15.50;99.90
36716;DHT22;22699;51.034;3.730;2023-03-23T10:12:43;15.50;99.90
36716;DHT22;22699;51.034;3.730;2023-03-23T10:15:20;15.70;99.90
36716;DHT22;22699;51.034;3.730;2023-03-23T10:17:52;15.80;99.90
36716;DHT22;22699;51.034;3.730;2023-03-23T10:20:24;15.80;99.90
36716;DHT22;22699;51.034;3.730;2023-03-23T10:23:05;15.90;99.90
36716;DHT22;22699;51.034;3.730;2023-03-23T10:25:37;15.90;99.90
36716;DHT22;22699;51.034;3.730;2023-03-23T10:28:11;15.80;99.90
36716;DHT22;22699;51.034;3.730;2023-03-23T10:30:43;15.80;99.90
36716;DHT22;22699;51.034;3.730;2023-03-23T10:33:19;15.60;99.90
36716;DHT22;22699;51.034;3.730;2023-03-23T10:35:51;15.50;99.90
36716;DHT22;22699;51.034;3.730;2023-03-23T10:38:47;15.60;99.90
36716;DHT22;22699;51.034;3.730;2023-03-23T10:41:17;15.80;99.90
36716;DHT22;22699;51.034;3.730;2023-03-23T10:43:44;15.70;99.90
36716;DHT22;22699;51.034;3.730;2023-03-23T10:46:39;15.70;99.90
36716;DHT22;22699;51.034;3.730;2023-03-23T10:49:28;15.40;99.90
36716;DHT22;22699;51.034;3.730;2023-03-23T10:55:01;15.00;99.90
36716;DHT22;22699;51.034;3.730;2023-03-23T10:57:32;15.00;99.90
36716;DHT22;22699;51.034;3.730;2023-03-23T11:00:18;15.10;99.90
36716;DHT22;22699;51.034;3.730;2023-03-23T11:05:40;15.10;99.90
36716;DHT22;22699;51.034;3.730;2023-03-23T11:08:16;15.20;99.90
36716;DHT22;22699;51.034;3.730;2023-03-23T11:10:49;15.30;99.90
36716;DHT22;22699;51.034;3.730;2023-03-23T11:13:40;15.50;99.90
36716;DHT22;22699;51.034;3.730;2023-03-23T11:16:08;15.50;99.90
36716;DHT22;22699;51.034;3.730;2023-03-23T11:18:42;15.50;99.90
36716;DHT22;22699;51.034;3.730;2023-03-23T11:21:11;15.50;99.90
36716;DHT22;22699;51.034;3.730;2023-03-23T11:23:40;15.50;99.90
36716;DHT22;22699;51.034;3.730;2023-03-23T11:26:30;15.50;99.90
36716;DHT22;22699;51.034;3.730;2023-03-23T11:29:04;15.60;99.90
36716;DHT22;22699;51.034;3.730;2023-03-23T11:31:34;15.70;99.90
36716;DHT22;22699;51.034;3.730;2023-03-23T11:34:09;15.60;99.90
36716;DHT22;22699;51.034;3.730;2023-03-23T11:36:38;15.50;99.90
36716;DHT22;22699;51.034;3.730;2023-03-23T11:42:24;15.30;99.90
36716;DHT22;22699;51.034;3.730;2023-03-23T11:50:27;15.20;99.90
36716;DHT22;22699;51.034;3.730;2023-03-23T11:56:02;15.30;99.90
36716;DHT22;22699;51.034;3.730;2023-03-23T11:58:29;15.20;99.90
36716;DHT22;22699;51.034;3.730;2023-03-23T12:06:10;15.70;99.90
36716;DHT22;22699;51.034;3.730;2023-03-23T12:23:59;15.80;99.90
36716;DHT22;22699;51.034;3.730;2023-03-23T12:26:18;15.80;99.90
36716;DHT22;22699;51.034;3.730;2023-03-23T12:29:25;15.70;99.90
36716;DHT22;22699;51.034;3.730;2023-03-23T12:33:01;15.40;99.90
36716;DHT22;22699;51.034;3.730;2023-03-23T12:36:03;15.40;99.90
36716;DHT22;22699;51.034;3.730;2023-03-23T12:38:50;15.40;99.90
36716;DHT22;22699;51.034;3.730;2023-03-23T12:43:59;15.60;99.90
36716;DHT22;22699;51.034;3.730;2023-03-23T12:46:46;15.70;99.90
36716;DHT22;22699;51.034;3.730;2023-03-23T12:52:01;15.70;99.90
36716;DHT22;22699;51.034;3.730;2023-03-23T12:57:36;15.60;99.90
36716;DHT22;22699;51.034;3.730;2023-03-23T13:00:30;15.70;99.90
36716;DHT22;22699;51.034;3.730;2023-03-23T13:03:14;15.70;99.90
36716;DHT22;22699;51.034;3.730;2023-03-23T13:08:38;15.60;99.90
36716;DHT22;22699;51.034;3.730;2023-03-23T13:11:24;15.60;99.90
36716;DHT22;22699;51.034;3.730;2023-03-23T13:14:13;15.90;99.90
36716;DHT22;22699;51.034;3.730;2023-03-23T13:19:51;15.80;99.90
36716;DHT22;22699;51.034;3.730;2023-03-23T13:22:31;15.80;99.90
36716;DHT22;22699;51.034;3.730;2023-03-23T13:28:02;15.90;99.90
36716;DHT22;22699;51.034;3.730;2023-03-23T13:30:29;15.90;99.90
36716;DHT22;22699;51.034;3.730;2023-03-23T13:33:05;15.80;99.90
36716;DHT22;22699;51.034;3.730;2023-03-23T13:35:39;15.70;99.90
36716;DHT22;22699;51.034;3.730;2023-03-23T13:38:32;15.70;99.90
36716;DHT22;22699;51.034;3.730;2023-03-23T13:41:06;15.80;99.90
36716;DHT22;22699;51.034;3.730;2023-03-23T13:43:35;15.70;99.90
36716;DHT22;22699;51.034;3.730;2023-03-23T13:49:04;15.70;99.90
36716;DHT22;22699;51.034;3.730;2023-03-23T14:01:53;15.60;99.90
36716;DHT22;22699;51.034;3.730;2023-03-23T14:04:19;15.80;99.90
36716;DHT22;22699;51.034;3.730;2023-03-23T14:06:50;15.80;99.90
36716;DHT22;22699;51.034;3.730;2023-03-23T14:09:21;15.90;99.90
36716;DHT22;22699;51.034;3.730;2023-03-23T14:12:03;16.00;99.90
36716;DHT22;22699;51.034;3.730;2023-03-23T14:14:49;15.80;99.90
36716;DHT22;22699;51.034;3.730;2023-03-23T14:17:23;15.80;99.90
36716;DHT22;22699;51.034;3.730;2023-03-23T14:19:52;15.90;99.90
36716;DHT22;22699;51.034;3.730;2023-03-23T14:22:31;16.00;99.90
36716;DHT22;22699;51.034;3.730;2023-03-23T14:25:17;15.80;99.90
36716;DHT22;22699;51.034;3.730;2023-03-23T14:27:44;16.00;99.90
36716;DHT22;22699;51.034;3.730;2023-03-23T14:30:22;16.00;99.90
36716;DHT22;22699;51.034;3.730;2023-03-23T14:32:52;15.90;99.90
36716;DHT22;22699;51.034;3.730;2023-03-23T14:35:37;16.00;99.90
36716;DHT22;22699;51.034;3.730;2023-03-23T14:38:19;16.00;99.90
36716;DHT22;22699;51.034;3.730;2023-03-23T14:40:45;16.00;99.90
36716;DHT22;22699;51.034;3.730;2023-03-23T14:43:15;16.40;99.90
36716;DHT22;22699;51.034;3.730;2023-03-23T14:45:41;16.70;99.90
36716;DHT22;22699;51.034;3.730;2023-03-23T14:48:08;16.40;99.90
36716;DHT22;22699;51.034;3.730;2023-03-23T14:50:42;16.50;99.90
36716;DHT22;22699;51.034;3.730;2023-03-23T14:53:23;16.40;99.90
36716;DHT22;22699;51.034;3.730;2023-03-23T14:55:52;16.40;99.90
36716;DHT22;22699;51.034;3.730;2023-03-23T14:58:21;16.30;99.90
36716;DHT22;22699;51.034;3.730;2023-03-23T15:01:10;16.20;99.90
36716;DHT22;22699;51.034;3.730;2023-03-23T15:03:42;16.40;99.90
36716;DHT22;22699;51.034;3.730;2023-03-23T15:06:14;16.40;99.90
36716;DHT22;22699;51.034;3.730;2023-03-23T15:08:41;16.50;99.90
36716;DHT22;22699;51.034;3.730;2023-03-23T15:13:50;16.30;99.90
36716;DHT22;22699;51.034;3.730;2023-03-23T15:16:28;16.20;99.90
36716;DHT22;22699;51.034;3.730;2023-03-23T15:19:13;16.20;99.90
36716;DHT22;22699;51.034;3.730;2023-03-23T15:22:16;16.30;99.90
36716;DHT22;22699;51.034;3.730;2023-03-23T15:24:43;16.40;99.90
36716;DHT22;22699;51.034;3.730;2023-03-23T15:27:15;16.30;99.90
36716;DHT22;22699;51.034;3.730;2023-03-23T15:29:56;16.10;99.90
36716;DHT22;22699;51.034;3.730;2023-03-23T15:32:38;16.30;99.90
36716;DHT22;22699;51.034;3.730;2023-03-23T15:35:15;16.30;99.90
36716;DHT22;22699;51.034;3.730;2023-03-23T15:37:46;16.20;99.90
36716;DHT22;22699;51.034;3.730;2023-03-23T15:40:18;16.30;99.90
36716;DHT22;22699;51.034;3.730;2023-03-23T15:42:44;16.30;99.90
36716;DHT22;22699;51.034;3.730;2023-03-23T15:50:16;16.30;99.90
36716;DHT22;22699;51.034;3.730;2023-03-23T15:52:43;16.10;99.90
36716;DHT22;22699;51.034;3.730;2023-03-23T15:55:29;15.60;99.90
36716;DHT22;22699;51.034;3.730;2023-03-23T15:58:00;15.40;99.90
36716;DHT22;22699;51.034;3.730;2023-03-23T16:00:27;15.20;99.90
36716;DHT22;22699;51.034;3.730;2023-03-23T16:02:57;15.20;99.90
36716;DHT22;22699;51.034;3.730;2023-03-23T16:05:23;15.10;99.90
36716;DHT22;22699;51.034;3.730;2023-03-23T16:07:50;15.00;99.90
36716;DHT22;22699;51.034;3.730;2023-03-23T16:10:18;15.30;99.90
36716;DHT22;22699;51.034;3.730;2023-03-23T16:12:45;15.20;99.90
36716;DHT22;22699;51.034;3.730;2023-03-23T16:15:19;15.20;99.90
36716;DHT22;22699;51.034;3.730;2023-03-23T16:17:45;15.30;99.90
36716;DHT22;22699;51.034;3.730;2023-03-23T16:20:32;15.30;99.90
36716;DHT22;22699;51.034;3.730;2023-03-23T16:23:04;15.00;99.90
36716;DHT22;22699;51.034;3.730;2023-03-23T16:25:30;15.30;99.90
36716;DHT22;22699;51.034;3.730;2023-03-23T16:28:35;15.60;99.90
36716;DHT22;22699;51.034;3.730;2023-03-23T16:31:06;15.40;99.90
36716;DHT22;22699;51.034;3.730;2023-03-23T16:33:54;15.50;99.90
36716;DHT22;22699;51.034;3.730;2023-03-23T16:36:20;15.40;99.90
36716;DHT22;22699;51.034;3.730;2023-03-23T16:38:46;15.50;99.90
36716;DHT22;22699;51.034;3.730;2023-03-23T16:41:12;15.50;99.90
36716;DHT22;22699;51.034;3.730;2023-03-23T16:43:37;15.50;99.90
36716;DHT22;22699;51.034;3.730;2023-03-23T16:46:03;15.40;99.90
36716;DHT22;22699;51.034;3.730;2023-03-23T16:48:32;15.40;99.90
36716;DHT22;22699;51.034;3.730;2023-03-23T16:51:09;15.60;99.90
36716;DHT22;22699;51.034;3.730;2023-03-23T16:53:41;15.40;99.90
36716;DHT22;22699;51.034;3.730;2023-03-23T16:56:14;15.50;99.90
36716;DHT22;22699;51.034;3.730;2023-03-23T16:59:00;15.50;99.90
36716;DHT22;22699;51.034;3.730;2023-03-23T17:01:26;15.40;99.90
36716;DHT22;22699;51.034;3.730;2023-03-23T17:03:54;15.40;99.90
36716;DHT22;22699;51.034;3.730;2023-03-23T17:06:20;15.50;99.90
36716;DHT22;22699;51.034;3.730;2023-03-23T17:08:46;15.60;99.90
36716;DHT22;22699;51.034;3.730;2023-03-23T17:11:13;15.60;99.90
36716;DHT22;22699;51.034;3.730;2023-03-23T17:13:38;15.30;99.90
36716;DHT22;22699;51.034;3.730;2023-03-23T17:16:04;15.70;99.90
36716;DHT22;22699;51.034;3.730;2023-03-23T17:18:30;15.50;99.90
36716;DHT22;22699;51.034;3.730;2023-03-23T17:20:57;15.50;99.90
36716;DHT22;22699;51.034;3.730;2023-03-23T17:23:24;15.50;99.90
36716;DHT22;22699;51.034;3.730;2023-03-23T17:25:50;15.60;99.90
36716;DHT22;22699;51.034;3.730;2023-03-23T17:28:17;15.70;99.90
36716;DHT22;22699;51.034;3.730;2023-03-23T17:30:44;15.90;99.90
36716;DHT22;22699;51.034;3.730;2023-03-23T17:33:10;15.70;99.90